Time;durP1;ratioP1;P1;durP2;ratioP2;P2;SDS_P1;SDS_P2;PMS_P1;PMS_P2;Temp;Humidity;BMP_temperature;BMP_pressure;BME280_temperature;BME280_humidity;BME280_pressure;Samples;Min_cycle;Max_cycle;Signal;HPM_P1;HPM_P2
2023/10/06 00:00:33;;;;;;;;;;;;;;;21.38;57.14;101984.91;5022864;28;6033;-74
2023/10/06 00:03:06;;;;;;;;;;;;;;;21.37;57.37;101989.16;5042190;28;2363;-73
2023/10/06 00:05:32;;;;;;;;;;;;;;;21.37;57.35;101977.63;5042134;28;2302;-74
2023/10/06 00:07:59;;;;;;;;;;;;;;;21.37;57.47;101987.03;5039319;28;2255;-73
2023/10/06 00:10:30;;;;;;;;;;;;;;;21.36;57.41;101981.91;5023528;28;2346;-74
2023/10/06 00:13:01;;;;;;;;;;;;;;;21.37;57.48;101983.41;5039504;28;2363;-74
2023/10/06 00:15:28;;;;;;;;;;;;;;;21.34;57.46;101983.28;5041669;28;2084;-73
2023/10/06 00:18:07;;;;;;;;;;;;;;;21.33;57.35;101967.38;5028825;28;2219;-73
2023/10/06 00:20:49;;;;;;;;;;;;;;;21.33;57.44;101984.66;5039090;28;2534;-74
2023/10/06 00:23:22;;;;;;;;;;;;;;;21.32;57.28;101971.63;5040352;28;2314;-73
2023/10/06 00:25:52;;;;;;;;;;;;;;;21.33;57.32;101976.03;5042039;28;2019;-74
2023/10/06 00:28:25;;;;;;;;;;;;;;;21.33;57.45;101978.16;5039807;28;2322;-74
2023/10/06 00:30:55;;;;;;;;;;;;;;;21.32;57.20;101965.88;5040923;28;6093;-73
2023/10/06 00:33:37;;;;;;;;;;;;;;;21.33;57.47;101972.41;5024437;28;2142;-73
2023/10/06 00:36:17;;;;;;;;;;;;;;;21.31;57.59;101973.03;5024265;28;2387;-73
2023/10/06 00:38:50;;;;;;;;;;;;;;;21.31;57.26;101975.16;5026036;28;2155;-73
2023/10/06 00:41:17;;;;;;;;;;;;;;;21.30;57.29;101983.06;5039015;28;2282;-74
2023/10/06 00:43:43;;;;;;;;;;;;;;;21.30;57.41;101985.94;5039546;28;2052;-74
2023/10/06 00:46:11;;;;;;;;;;;;;;;21.31;57.59;101978.78;5041911;28;1956;-73
2023/10/06 00:48:40;;;;;;;;;;;;;;;21.30;57.31;101985.94;5023742;28;2322;-74
2023/10/06 00:51:13;;;;;;;;;;;;;;;21.31;57.44;101980.91;5039373;28;2279;-72
2023/10/06 00:53:39;;;;;;;;;;;;;;;21.30;57.34;101980.19;5017182;28;2335;-73
2023/10/06 00:56:10;;;;;;;;;;;;;;;21.31;57.56;101978.03;5040381;28;1918;-73
2023/10/06 00:58:43;;;;;;;;;;;;;;;21.30;57.50;101973.63;5039159;28;2444;-74
2023/10/06 01:01:12;;;;;;;;;;;;;;;21.29;57.63;101970.00;5040590;28;6187;-73
2023/10/06 01:03:42;;;;;;;;;;;;;;;21.30;57.40;101979.41;5006134;28;2285;-73
2023/10/06 01:06:12;;;;;;;;;;;;;;;21.29;57.59;101967.13;5007289;28;2128;-73
2023/10/06 01:08:40;;;;;;;;;;;;;;;21.28;57.35;101962.75;5041297;28;2682;-73
2023/10/06 01:11:11;;;;;;;;;;;;;;;21.28;57.57;101971.41;5036388;28;2239;-74
2023/10/06 01:13:52;;;;;;;;;;;;;;;21.28;57.53;101970.63;5039064;28;2022;-73
2023/10/06 01:16:21;;;;;;;;;;;;;;;21.27;57.62;101967.00;5038608;28;1963;-73
2023/10/06 01:18:49;;;;;;;;;;;;;;;21.28;57.62;101962.75;5022694;28;2406;-73
2023/10/06 01:21:28;;;;;;;;;;;;;;;21.28;57.77;101965.66;5021595;28;2367;-74
2023/10/06 01:24:11;;;;;;;;;;;;;;;21.27;57.45;101964.13;5038514;28;2415;-73
2023/10/06 01:26:41;;;;;;;;;;;;;;;21.27;57.70;101958.38;5038219;28;2380;-73
2023/10/06 01:29:10;;;;;;;;;;;;;;;21.27;57.45;101952.59;5033435;28;2327;-73
2023/10/06 01:31:40;;;;;;;;;;;;;;;21.27;57.81;101949.72;5034654;28;6215;-74
2023/10/06 01:34:11;;;;;;;;;;;;;;;21.26;57.63;101956.88;5006678;28;2435;-73
2023/10/06 01:36:37;;;;;;;;;;;;;;;21.26;57.54;101951.13;5021927;28;2196;-73
2023/10/06 01:39:05;;;;;;;;;;;;;;;21.26;57.43;101956.88;5023258;28;2289;-73
2023/10/06 01:41:34;;;;;;;;;;;;;;;21.25;57.65;101961.13;5023701;28;2346;-73
2023/10/06 01:44:01;;;;;;;;;;;;;;;21.26;57.74;101962.63;5005281;28;2348;-74
2023/10/06 01:46:28;;;;;;;;;;;;;;;21.25;57.64;101966.13;5007483;28;1656;-74
2023/10/06 01:48:55;;;;;;;;;;;;;;;21.25;57.77;101972.66;5019400;28;2075;-73
2023/10/06 01:51:22;;;;;;;;;;;;;;;21.25;57.57;101961.13;5043564;28;2358;-73
2023/10/06 01:53:49;;;;;;;;;;;;;;;21.24;57.79;101962.50;5026037;28;2326;-73
2023/10/06 01:56:21;;;;;;;;;;;;;;;21.24;57.73;101971.16;5044276;28;2295;-73
2023/10/06 01:58:51;;;;;;;;;;;;;;;21.24;57.60;101974.03;5009503;28;2332;-73
2023/10/06 02:01:20;;;;;;;;;;;;;;;21.23;57.83;101961.00;5039563;28;6230;-73
2023/10/06 02:03:47;;;;;;;;;;;;;;;21.24;57.57;101968.28;5042970;28;2378;-74
2023/10/06 02:06:16;;;;;;;;;;;;;;;21.24;57.79;101971.16;5041068;28;2306;-74
2023/10/06 02:08:43;;;;;;;;;;;;;;;21.24;57.48;101971.16;5044778;28;2322;-73
2023/10/06 02:11:12;;;;;;;;;;;;;;;21.24;57.79;101965.41;5043205;28;1794;-73
2023/10/06 02:13:38;;;;;;;;;;;;;;;21.23;57.58;101966.75;5043102;28;2407;-74
2023/10/06 02:16:06;;;;;;;;;;;;;;;21.24;57.66;101962.50;5041346;28;2271;-74
2023/10/06 02:18:40;;;;;;;;;;;;;;;21.23;57.92;101958.13;5026243;28;1930;-74
2023/10/06 02:21:23;;;;;;;;;;;;;;;21.23;57.84;101957.38;5042498;28;2244;-73
2023/10/06 02:23:51;;;;;;;;;;;;;;;21.22;57.61;101962.38;5028550;28;2454;-74
2023/10/06 02:26:17;;;;;;;;;;;;;;;21.22;57.90;101962.38;5024302;28;2332;-73
2023/10/06 02:28:48;;;;;;;;;;;;;;;21.22;57.86;101968.16;5042121;28;2582;-73
2023/10/06 02:31:15;;;;;;;;;;;;;;;21.21;57.84;101972.44;5041232;28;6049;-74
2023/10/06 02:33:47;;;;;;;;;;;;;;;21.22;57.85;101976.78;5024332;28;2174;-74
2023/10/06 02:36:23;;;;;;;;;;;;;;;21.22;57.64;101973.91;5041697;28;2101;-73
2023/10/06 02:38:50;;;;;;;;;;;;;;;21.21;57.77;101965.88;5041741;28;2374;-73
2023/10/06 02:41:20;;;;;;;;;;;;;;;21.20;57.65;101970.91;5040431;28;2315;-74
2023/10/06 02:43:50;;;;;;;;;;;;;;;21.21;57.60;101972.44;5041253;28;2294;-73
2023/10/06 02:46:17;;;;;;;;;;;;;;;21.21;57.87;101971.66;5025736;28;2268;-73
2023/10/06 02:48:48;;;;;;;;;;;;;;;21.21;57.79;101968.78;5019545;28;2378;-73
2023/10/06 02:51:29;;;;;;;;;;;;;;;21.20;57.91;101968.03;5040610;28;2306;-74
2023/10/06 02:54:09;;;;;;;;;;;;;;;21.21;57.70;101960.91;5041599;28;2321;-73
2023/10/06 02:56:36;;;;;;;;;;;;;;;21.19;57.96;101957.91;5037642;28;2285;-74
2023/10/06 02:59:20;;;;;;;;;;;;;;;21.20;57.94;101953.63;5024734;28;2731;-75
2023/10/06 03:01:52;;;;;;;;;;;;;;;21.20;57.66;101947.84;5024038;28;6043;-75
2023/10/06 03:04:21;;;;;;;;;;;;;;;21.20;57.78;101939.22;5024823;28;2310;-74
2023/10/06 03:06:53;;;;;;;;;;;;;;;21.20;57.70;101947.84;5025002;28;2391;-74
2023/10/06 03:09:20;;;;;;;;;;;;;;;21.20;57.64;101942.09;5039099;28;2278;-74
2023/10/06 03:11:50;;;;;;;;;;;;;;;21.20;57.81;101938.47;5040430;28;2349;-73
2023/10/06 03:14:24;;;;;;;;;;;;;;;21.21;57.88;101937.09;5022795;28;2306;-74
2023/10/06 03:16:51;;;;;;;;;;;;;;;21.20;57.96;101936.34;5029514;28;2415;-74
2023/10/06 03:19:24;;;;;;;;;;;;;;;21.20;57.91;101933.47;5039584;28;2386;-73
2023/10/06 03:21:56;;;;;;;;;;;;;;;21.21;57.78;101939.97;5041032;28;2149;-74
2023/10/06 03:24:30;;;;;;;;;;;;;;;21.20;58.12;101936.34;5040618;28;2311;-74
2023/10/06 03:26:58;;;;;;;;;;;;;;;21.18;57.75;101939.09;5037403;28;2315;-73
2023/10/06 03:29:39;;;;;;;;;;;;;;;21.20;57.99;101939.22;5037551;28;2332;-74
2023/10/06 03:32:11;;;;;;;;;;;;;;;21.21;58.25;101931.31;5021179;28;6059;-72
2023/10/06 03:34:38;;;;;;;;;;;;;;;21.19;58.06;101929.09;5021045;28;2366;-73
2023/10/06 03:37:05;;;;;;;;;;;;;;;21.13;58.36;101937.34;5022469;28;2413;-73
2023/10/06 03:39:38;;;;;;;;;;;;;;;21.15;58.08;101943.25;5041436;28;2254;-73
2023/10/06 03:42:10;;;;;;;;;;;;;;;21.16;58.24;101941.09;5040301;28;2337;-73
2023/10/06 03:44:37;;;;;;;;;;;;;;;21.18;58.01;101932.59;5023038;28;2316;-73
2023/10/06 03:47:07;;;;;;;;;;;;;;;21.16;58.14;101936.09;5040258;28;2337;-73
2023/10/06 03:49:35;;;;;;;;;;;;;;;21.16;57.91;101930.31;5042055;28;2258;-73
2023/10/06 03:52:03;;;;;;;;;;;;;;;21.16;58.03;101933.22;5040896;28;2228;-73
2023/10/06 03:54:29;;;;;;;;;;;;;;;21.16;58.09;101924.56;5024365;28;2326;-73
2023/10/06 03:56:56;;;;;;;;;;;;;;;21.17;58.28;101931.09;5040575;28;2429;-73
2023/10/06 03:59:23;;;;;;;;;;;;;;;21.16;58.02;101932.47;5041268;28;2396;-73
2023/10/06 04:01:51;;;;;;;;;;;;;;;21.16;58.37;101930.31;5021854;28;7267;-73
2023/10/06 04:04:22;;;;;;;;;;;;;;;21.16;58.04;101926.69;5040642;28;2482;-73
2023/10/06 04:06:49;;;;;;;;;;;;;;;21.16;58.07;101924.56;5024142;28;2350;-73
2023/10/06 04:09:27;;;;;;;;;;;;;;;21.16;58.30;101927.44;5023411;28;2465;-73
2023/10/06 04:11:57;;;;;;;;;;;;;;;21.16;58.40;101927.44;5040227;28;2275;-73
2023/10/06 04:14:23;;;;;;;;;;;;;;;21.15;58.43;101923.09;5041444;28;2342;-73
2023/10/06 04:16:50;;;;;;;;;;;;;;;21.14;58.34;101927.31;5042707;28;1706;-73
2023/10/06 04:19:17;;;;;;;;;;;;;;;21.15;58.31;101934.59;5041916;28;1582;-74
2023/10/06 04:21:43;;;;;;;;;;;;;;;21.15;58.03;101928.84;5024657;28;1816;-73
2023/10/06 04:24:10;;;;;;;;;;;;;;;21.14;58.30;101930.19;5040985;28;2212;-74
2023/10/06 04:26:36;;;;;;;;;;;;;;;21.14;58.17;101927.31;5042553;28;1865;-73
2023/10/06 04:29:04;;;;;;;;;;;;;;;21.13;58.16;101932.34;5041129;28;1987;-73
2023/10/06 04:31:30;;;;;;;;;;;;;;;21.14;58.00;101938.84;5040902;28;6396;-73
2023/10/06 04:33:58;;;;;;;;;;;;;;;21.16;58.19;101936.09;5040961;28;1655;-75
2023/10/06 04:36:24;;;;;;;;;;;;;;;21.15;58.28;101928.09;5041422;28;2106;-75
2023/10/06 04:38:51;;;;;;;;;;;;;;;21.16;58.38;101941.84;5023925;28;2099;-74
2023/10/06 04:41:20;;;;;;;;;;;;;;;21.15;58.43;101934.59;5042076;28;1570;-74
2023/10/06 04:43:47;;;;;;;;;;;;;;;21.15;58.25;101946.13;5025107;28;2141;-74
2023/10/06 04:46:13;;;;;;;;;;;;;;;21.15;58.17;101945.38;5040958;28;2053;-73
2023/10/06 04:48:40;;;;;;;;;;;;;;;21.15;58.41;101946.13;5042196;28;1784;-74
2023/10/06 04:51:09;;;;;;;;;;;;;;;21.15;58.46;101951.13;5040817;28;1606;-75
2023/10/06 04:53:36;;;;;;;;;;;;;;;21.13;58.18;101937.34;5042393;28;1777;-75
2023/10/06 04:56:06;;;;;;;;;;;;;;;21.12;58.07;101935.88;5040625;28;2261;-74
2023/10/06 04:58:32;;;;;;;;;;;;;;;21.14;58.39;101933.09;5041416;28;1918;-74
2023/10/06 05:01:07;;;;;;;;;;;;;;;21.13;58.15;101937.34;5029858;28;6271;-75
2023/10/06 05:03:42;;;;;;;;;;;;;;;21.13;58.23;101931.59;5042860;28;1634;-75
2023/10/06 05:06:13;;;;;;;;;;;;;;;21.11;58.40;101934.34;5040149;28;2178;-75
2023/10/06 05:08:40;;;;;;;;;;;;;;;21.10;58.18;101927.09;5024340;28;1729;-75
2023/10/06 05:11:07;;;;;;;;;;;;;;;21.12;58.07;101918.59;5024413;28;2051;-75
2023/10/06 05:13:37;;;;;;;;;;;;;;;21.15;58.52;101916.56;5041129;28;2267;-75
2023/10/06 05:16:04;;;;;;;;;;;;;;;21.13;58.71;101920.06;5041070;28;1634;-74
2023/10/06 05:18:32;;;;;;;;;;;;;;;21.14;58.53;101933.09;5040734;28;1963;-69
2023/10/06 05:20:59;;;;;;;;;;;;;;;21.14;58.79;101930.19;5040710;28;1582;-67
2023/10/06 05:23:26;;;;;;;;;;;;;;;21.25;59.58;101926.56;5040190;28;2150;-70
2023/10/06 05:25:56;;;;;;;;;;;;;;;21.21;58.54;101914.81;5041243;28;1634;-70
2023/10/06 05:28:22;;;;;;;;;;;;;;;21.56;59.12;101919.00;5040431;28;2114;-68
2023/10/06 05:30:50;;;;;;;;;;;;;;;21.54;58.34;101917.50;5040432;28;6351;-66
2023/10/06 05:33:18;;;;;;;;;;;;;;;21.71;58.53;101913.41;5024956;28;3862;-68
2023/10/06 05:35:45;;;;;;;;;;;;;;;21.82;58.05;101911.13;5039063;28;2282;-68
2023/10/06 05:38:14;;;;;;;;;;;;;;;21.80;57.98;101916.75;5038006;28;2519;-69
2023/10/06 05:40:41;;;;;;;;;;;;;;;21.90;58.07;101917.34;5040200;28;2637;-69
2023/10/06 05:43:17;;;;;;;;;;;;;;;21.78;57.72;101919.53;5039119;28;2117;-69
2023/10/06 05:45:44;;;;;;;;;;;;;;;21.62;57.84;101925.84;5041340;28;2122;-70
2023/10/06 05:48:11;;;;;;;;;;;;;;;21.54;58.50;101928.28;5040479;28;1666;-68
2023/10/06 05:50:40;;;;;;;;;;;;;;;21.57;58.17;101932.75;5041971;28;1567;-71
2023/10/06 05:53:12;;;;;;;;;;;;;;;21.59;58.67;101924.25;5042525;28;1703;-75
2023/10/06 05:55:41;;;;;;;;;;;;;;;21.79;58.16;101930.44;5037952;28;2193;-73
2023/10/06 05:58:19;;;;;;;;;;;;;;;21.83;57.84;101929.91;5039552;28;2134;-75
2023/10/06 06:01:05;;;;;;;;;;;;;;;21.89;57.59;101933.16;5037035;28;6066;-74
2023/10/06 06:03:32;;;;;;;;;;;;;;;21.83;57.96;101941.44;5039275;28;2204;-75
2023/10/06 06:06:08;;;;;;;;;;;;;;;21.39;58.74;101943.19;5037775;28;1805;-73
2023/10/06 06:08:35;;;;;;;;;;;;;;;21.47;58.86;101929.31;5039334;28;2248;-73
2023/10/06 06:11:02;;;;;;;;;;;;;;;21.45;58.39;101923.41;5038976;28;1584;-71
2023/10/06 06:13:28;;;;;;;;;;;;;;;21.40;58.84;101928.19;5041229;28;2001;-70
2023/10/06 06:15:54;;;;;;;;;;;;;;;21.46;58.53;101922.78;5035375;28;2567;-71
2023/10/06 06:18:21;;;;;;;;;;;;;;;21.50;58.72;101919.38;5036242;28;2490;-71
2023/10/06 06:20:47;;;;;;;;;;;;;;;21.55;58.24;101921.13;5038309;28;2505;-70
2023/10/06 06:23:15;;;;;;;;;;;;;;;21.64;58.33;101908.66;5038272;28;2409;-70
2023/10/06 06:25:42;;;;;;;;;;;;;;;21.59;58.21;101906.94;5034524;28;2432;-70
2023/10/06 06:28:12;;;;;;;;;;;;;;;21.43;58.60;101911.78;5038964;28;2460;-70
2023/10/06 06:30:39;;;;;;;;;;;;;;;21.32;59.20;101908.25;5037865;28;6044;-69
2023/10/06 06:33:08;;;;;;;;;;;;;;;21.71;58.91;101918.44;5038287;28;2436;-69
2023/10/06 06:35:35;;;;;;;;;;;;;;;21.89;58.21;101919.47;5035575;28;2548;-69
2023/10/06 06:38:04;;;;;;;;;;;;;;;21.78;57.78;101911.63;5040001;28;2495;-71
2023/10/06 06:40:31;;;;;;;;;;;;;;;21.63;57.93;101918.72;5041641;28;2654;-74
2023/10/06 06:42:57;;;;;;;;;;;;;;;21.75;57.75;101925.19;5042255;28;2515;-71
2023/10/06 06:45:24;;;;;;;;;;;;;;;21.67;58.08;101924.72;5040864;28;2459;-72
2023/10/06 06:47:51;;;;;;;;;;;;;;;21.67;57.99;101927.59;5041447;28;2483;-70
2023/10/06 06:50:17;;;;;;;;;;;;;;;21.65;57.73;101924.59;5041693;28;2569;-73
2023/10/06 06:52:44;;;;;;;;;;;;;;;21.66;58.20;101916.69;5040704;28;2592;-71
2023/10/06 06:55:13;;;;;;;;;;;;;;;21.71;58.16;101907.63;5039975;28;2672;-71
2023/10/06 06:57:41;;;;;;;;;;;;;;;21.73;58.07;101910.63;5042474;28;2468;-72
2023/10/06 07:00:15;;;;;;;;;;;;;;;21.51;58.22;101915.13;5041615;28;6364;-72
2023/10/06 07:02:45;;;;;;;;;;;;;;;21.41;58.80;101921.03;5043228;28;2594;-73
2023/10/06 07:05:12;;;;;;;;;;;;;;;21.59;58.55;101935.03;5036518;28;2459;-75
2023/10/06 07:07:43;;;;;;;;;;;;;;;21.61;58.41;101938.78;5017512;28;2355;-73
2023/10/06 07:10:14;;;;;;;;;;;;;;;21.67;58.16;101929.72;5040780;28;2311;-73
2023/10/06 07:12:41;;;;;;;;;;;;;;;21.62;58.36;101917.19;5041731;28;2169;-73
2023/10/06 07:15:17;;;;;;;;;;;;;;;21.60;58.26;101914.22;5041234;28;1648;-73
2023/10/06 07:17:47;;;;;;;;;;;;;;;21.58;58.05;101916.22;5043637;28;2005;-73
2023/10/06 07:20:17;;;;;;;;;;;;;;;21.56;58.15;101919.00;5041956;28;2141;-73
2023/10/06 07:22:45;;;;;;;;;;;;;;;21.56;58.03;101913.25;5042297;28;2082;-73
2023/10/06 07:25:12;;;;;;;;;;;;;;;21.53;58.34;101915.22;5038124;28;2106;-73
2023/10/06 07:27:38;;;;;;;;;;;;;;;21.53;58.11;101904.47;5042675;28;1710;-73
2023/10/06 07:30:09;;;;;;;;;;;;;;;21.53;58.24;101909.47;5041980;28;6017;-73
2023/10/06 07:32:40;;;;;;;;;;;;;;;21.51;58.25;101912.25;5041744;28;2082;-73
2023/10/06 07:35:08;;;;;;;;;;;;;;;21.52;58.48;101919.50;5041395;28;2026;-73
2023/10/06 07:37:36;;;;;;;;;;;;;;;21.51;58.18;101921.66;5042265;28;2118;-73
2023/10/06 07:40:03;;;;;;;;;;;;;;;21.50;58.32;101913.63;5025496;28;1918;-73
2023/10/06 07:42:31;;;;;;;;;;;;;;;21.49;58.14;101904.22;5041126;28;2205;-73
2023/10/06 07:44:57;;;;;;;;;;;;;;;21.49;58.14;101897.72;5040633;28;2177;-73
2023/10/06 07:47:24;;;;;;;;;;;;;;;21.49;58.30;101897.72;5024245;28;2166;-73
2023/10/06 07:49:51;;;;;;;;;;;;;;;21.48;58.17;101896.22;5041310;28;2183;-73
2023/10/06 07:52:17;;;;;;;;;;;;;;;21.48;58.23;101891.19;5042001;28;1829;-73
2023/10/06 07:54:43;;;;;;;;;;;;;;;21.47;58.17;101903.38;5041478;28;1797;-73
2023/10/06 07:57:12;;;;;;;;;;;;;;;21.48;58.51;101910.63;5041398;28;2374;-73
2023/10/06 07:59:39;;;;;;;;;;;;;;;21.48;58.37;101916.38;5041101;28;1977;-73
2023/10/06 08:02:06;;;;;;;;;;;;;;;21.47;58.36;101918.50;5040469;28;6099;-73
2023/10/06 08:04:32;;;;;;;;;;;;;;;21.46;58.21;101916.25;5039320;28;2019;-73
2023/10/06 08:07:00;;;;;;;;;;;;;;;21.46;58.12;101910.50;5042047;28;1669;-73
2023/10/06 08:09:26;;;;;;;;;;;;;;;21.45;58.26;101901.09;5040198;28;2114;-73
2023/10/06 08:11:56;;;;;;;;;;;;;;;21.45;58.56;101885.97;5042226;28;2055;-73
2023/10/06 08:14:24;;;;;;;;;;;;;;;21.45;58.43;101892.47;5040200;28;1797;-73
2023/10/06 08:16:51;;;;;;;;;;;;;;;21.45;58.53;101891.72;5038156;28;1913;-73
2023/10/06 08:19:17;;;;;;;;;;;;;;;21.43;58.23;101891.59;5041665;28;1918;-73
2023/10/06 08:21:44;;;;;;;;;;;;;;;21.43;58.30;101889.47;5042619;28;1606;-73
2023/10/06 08:24:11;;;;;;;;;;;;;;;21.43;58.47;101875.06;5038461;28;2170;-73
2023/10/06 08:26:38;;;;;;;;;;;;;;;21.44;58.19;101872.91;5039757;28;2277;-73
2023/10/06 08:29:04;;;;;;;;;;;;;;;21.43;58.57;101865.66;5041046;28;2070;-74
2023/10/06 08:31:31;;;;;;;;;;;;;;;21.43;58.48;101862.78;5041168;28;6106;-73
2023/10/06 08:34:04;;;;;;;;;;;;;;;21.41;58.47;101856.91;5037581;28;2142;-73
2023/10/06 08:36:31;;;;;;;;;;;;;;;21.40;58.41;101853.28;5041080;28;2324;-72
2023/10/06 08:38:58;;;;;;;;;;;;;;;21.41;58.62;101846.13;5039120;28;2126;-73
2023/10/06 08:41:26;;;;;;;;;;;;;;;21.41;58.36;101842.50;5040160;28;2066;-73
2023/10/06 08:43:53;;;;;;;;;;;;;;;21.40;58.59;101846.75;5022096;28;2250;-73
2023/10/06 08:46:20;;;;;;;;;;;;;;;21.40;58.57;101832.31;5022457;28;2303;-73
2023/10/06 08:48:46;;;;;;;;;;;;;;;21.40;58.28;101835.22;5024335;28;2262;-73
2023/10/06 08:51:14;;;;;;;;;;;;;;;21.39;58.47;101837.31;5039777;28;1935;-73
2023/10/06 08:53:41;;;;;;;;;;;;;;;21.41;58.44;101851.13;5040727;28;2202;-73
2023/10/06 08:56:07;;;;;;;;;;;;;;;21.40;58.46;101844.63;5038504;28;1830;-73
2023/10/06 08:58:35;;;;;;;;;;;;;;;21.40;58.66;101838.09;5038812;28;1917;-73
2023/10/06 09:01:04;;;;;;;;;;;;;;;21.40;58.51;101832.31;5040423;28;6527;-73
2023/10/06 09:03:31;;;;;;;;;;;;;;;21.38;58.55;101847.34;5042169;28;2087;-73
2023/10/06 09:05:57;;;;;;;;;;;;;;;21.40;58.56;101849.63;5038040;28;2078;-73
2023/10/06 09:08:24;;;;;;;;;;;;;;;21.40;58.47;101855.38;5040584;28;1822;-73
2023/10/06 09:10:50;;;;;;;;;;;;;;;21.39;58.43;101845.97;5040229;28;2063;-73
2023/10/06 09:13:18;;;;;;;;;;;;;;;21.38;58.52;101847.34;5041373;28;1788;-73
2023/10/06 09:16:06;;;;;;;;;;;;;;;21.38;58.33;101846.63;5037572;28;2118;-73
2023/10/06 09:18:38;;;;;;;;;;;;;;;21.39;58.59;101848.09;5043299;28;1914;-73
2023/10/06 09:21:13;;;;;;;;;;;;;;;21.38;58.43;101847.34;5040198;28;2055;-73
2023/10/06 09:23:40;;;;;;;;;;;;;;;21.38;58.29;101835.09;5040079;28;1655;-72
2023/10/06 09:26:07;;;;;;;;;;;;;;;21.39;58.40;101842.34;5038711;28;1860;-73
2023/10/06 09:28:34;;;;;;;;;;;;;;;21.38;58.33;101841.59;5040300;28;1869;-73
2023/10/06 09:31:01;;;;;;;;;;;;;;;21.40;58.37;101849.63;5040156;28;6026;-73
2023/10/06 09:33:29;;;;;;;;;;;;;;;21.42;58.34;101841.13;5039064;28;2255;-74
2023/10/06 09:36:02;;;;;;;;;;;;;;;21.43;58.22;101836.84;5020900;28;2327;-72
2023/10/06 09:38:29;;;;;;;;;;;;;;;21.44;58.43;101832.56;5040847;28;2004;-73
2023/10/06 09:40:58;;;;;;;;;;;;;;;21.43;58.37;101820.31;5039686;28;2307;-73
2023/10/06 09:43:25;;;;;;;;;;;;;;;21.48;58.15;101827.03;5036724;28;2307;-74
2023/10/06 09:45:51;;;;;;;;;;;;;;;21.45;58.39;101822.56;5035530;28;2381;-74
2023/10/06 09:48:20;;;;;;;;;;;;;;;21.47;58.25;101805.38;5038936;28;2369;-73
2023/10/06 09:50:50;;;;;;;;;;;;;;;21.44;58.32;101792.22;5020181;28;2438;-73
2023/10/06 09:53:17;;;;;;;;;;;;;;;21.38;58.48;101786.84;5040001;28;1710;-73
2023/10/06 09:55:43;;;;;;;;;;;;;;;21.39;58.36;101790.47;5021603;28;1702;-73
2023/10/06 09:58:09;;;;;;;;;;;;;;;21.38;58.70;101789.72;5037780;28;2175;-73
2023/10/06 10:00:39;;;;;;;;;;;;;;;21.40;58.64;101794.88;5039547;28;6314;-73
2023/10/06 10:03:12;;;;;;;;;;;;;;;21.40;58.30;101797.75;5038163;28;2117;-73
2023/10/06 10:05:39;;;;;;;;;;;;;;;21.39;58.38;101773.19;5037571;28;2736;-73
2023/10/06 10:08:06;;;;;;;;;;;;;;;21.38;58.44;101783.97;5039319;28;2059;-73
2023/10/06 10:10:39;;;;;;;;;;;;;;;21.38;58.42;101765.94;5043567;28;1571;-73
2023/10/06 10:13:27;;;;;;;;;;;;;;;21.37;58.47;101759.41;5026725;28;2011;-77
2023/10/06 10:15:58;;;;;;;;;;;;;;;21.32;58.26;101767.06;5024713;28;2157;-74
2023/10/06 10:18:29;;;;;;;;;;;;;;;21.51;58.65;101760.25;5039778;28;2275;-75
2023/10/06 10:20:59;;;;;;;;;;;;;;;21.65;58.29;101765.31;5026005;28;2318;-73
2023/10/06 10:23:26;;;;;;;;;;;;;;;21.69;57.45;101766.28;5028115;28;1677;-74
2023/10/06 10:25:54;;;;;;;;;;;;;;;21.69;57.93;101765.53;5021448;28;2311;-74
2023/10/06 10:28:20;;;;;;;;;;;;;;;21.70;57.69;101762.00;5026184;28;2211;-73
2023/10/06 10:30:53;;;;;;;;;;;;;;;21.67;57.95;101756.75;5041438;28;6779;-72
2023/10/06 10:33:21;;;;;;;;;;;;;;;21.70;57.66;101753.38;5041132;28;2233;-72
2023/10/06 10:36:06;;;;;;;;;;;;;;;21.61;58.04;101748.53;5041539;28;2631;-72
2023/10/06 10:38:33;;;;;;;;;;;;;;;22.09;57.52;101749.69;5044025;28;2137;-72
2023/10/06 10:41:01;;;;;;;;;;;;;;;22.15;57.51;101735.59;5041891;28;2342;-72
2023/10/06 10:43:27;;;;;;;;;;;;;;;22.25;56.75;101734.66;5045175;28;1821;-70
2023/10/06 10:45:54;;;;;;;;;;;;;;;22.24;56.70;101733.16;5041752;28;2336;-71
2023/10/06 10:48:22;;;;;;;;;;;;;;;22.24;56.78;101731.03;5042906;28;2306;-71
2023/10/06 10:51:12;;;;;;;;;;;;;;;22.27;56.44;101740.53;5042623;28;2345;-72
2023/10/06 10:53:41;;;;;;;;;;;;;;;22.24;56.38;101741.81;5043159;28;2162;-70
2023/10/06 10:56:13;;;;;;;;;;;;;;;22.29;56.54;101747.16;5039322;28;2181;-71
2023/10/06 10:58:49;;;;;;;;;;;;;;;22.18;56.74;101763.16;5041238;28;2331;-72
2023/10/06 11:01:27;;;;;;;;;;;;;;;22.24;57.01;101747.56;5039609;28;6186;-71
2023/10/06 11:04:18;;;;;;;;;;;;;;;22.30;56.62;101739.25;5042113;28;2215;-70
2023/10/06 11:06:46;;;;;;;;;;;;;;;22.32;56.45;101736.47;5042228;28;1582;-71
2023/10/06 11:09:25;;;;;;;;;;;;;;;22.16;56.50;101736.34;5044092;28;2165;-73
2023/10/06 11:11:58;;;;;;;;;;;;;;;22.18;56.74;101739.31;5041886;28;1671;-72
2023/10/06 11:14:45;;;;;;;;;;;;;;;22.03;57.01;101743.59;5041516;28;1745;-73
2023/10/06 11:17:12;;;;;;;;;;;;;;;21.99;56.91;101728.19;5042297;28;1577;-74
2023/10/06 11:19:39;;;;;;;;;;;;;;;21.97;57.33;101720.19;5043043;28;1985;-73
2023/10/06 11:22:13;;;;;;;;;;;;;;;21.97;57.30;101725.97;5040427;28;2351;-73
2023/10/06 11:24:40;;;;;;;;;;;;;;;21.74;57.26;101712.50;5039615;28;2197;-76
2023/10/06 11:27:09;;;;;;;;;;;;;;;22.00;57.07;101707.38;5039570;28;2308;-80
2023/10/06 11:29:36;;;;;;;;;;;;;;;22.23;56.66;101702.81;5024201;28;2332;-81
2023/10/06 11:32:02;;;;;;;;;;;;;;;22.35;56.43;101692.63;5043015;28;6642;-82
2023/10/06 11:34:29;;;;;;;;;;;;;;;22.35;56.48;101694.78;5041235;28;2357;-83
2023/10/06 11:36:56;;;;;;;;;;;;;;;22.37;56.33;101689.13;5023706;28;2386;-84
2023/10/06 11:39:23;;;;;;;;;;;;;;;22.40;56.29;101681.31;5020551;28;2707;-83
2023/10/06 11:41:51;;;;;;;;;;;;;;;22.23;56.33;101683.38;5041928;28;2255;-82
2023/10/06 11:44:19;;;;;;;;;;;;;;;22.06;56.88;101681.75;5039832;28;2494;-87
2023/10/06 11:46:49;;;;;;;;;;;;;;;22.05;56.99;101680.25;5044788;28;2436;-89
2023/10/06 11:49:19;;;;;;;;;;;;;;;22.07;57.13;101676.72;5041967;28;2440;-89
2023/10/06 11:51:45;;;;;;;;;;;;;;;22.09;57.08;101674.69;5043147;28;1778;-79
2023/10/06 11:54:12;;;;;;;;;;;;;;;22.14;56.89;101667.72;5041169;28;2304;-82
2023/10/06 11:56:48;;;;;;;;;;;;;;;22.09;56.83;101656.63;5041500;28;1829;-80
2023/10/06 11:59:18;;;;;;;;;;;;;;;22.09;56.97;101640.06;5042187;28;2410;-79
2023/10/06 12:01:45;;;;;;;;;;;;;;;22.10;57.04;101629.28;5042444;28;6244;-77
2023/10/06 12:04:31;;;;;;;;;;;;;;;22.09;56.94;101617.00;5023021;28;2429;-79
2023/10/06 12:06:58;;;;;;;;;;;;;;;22.12;56.60;101609.19;5041243;28;2481;-79
2023/10/06 12:09:25;;;;;;;;;;;;;;;22.26;56.69;101606.31;5042070;28;2721;-85
2023/10/06 12:11:55;;;;;;;;;;;;;;;22.35;56.38;101614.72;5026118;28;2445;-88
2023/10/06 12:14:22;;;;;;;;;;;;;;;22.40;56.06;101604.13;5040542;28;2441;-84
2023/10/06 12:16:48;;;;;;;;;;;;;;;22.41;56.07;101594.09;5042685;28;1705;-88
2023/10/06 12:19:15;;;;;;;;;;;;;;;22.41;56.13;101585.44;5041411;28;2423;-82
2023/10/06 12:21:43;;;;;;;;;;;;;;;22.46;55.81;101583.50;5044130;28;1602;-82
2023/10/06 12:24:11;;;;;;;;;;;;;;;22.50;56.08;101593.09;5022197;28;2297;-83
2023/10/06 12:26:39;;;;;;;;;;;;;;;22.57;55.96;101594.88;5040903;28;2315;-83
2023/10/06 12:29:06;;;;;;;;;;;;;;;22.59;55.50;101591.38;5041534;28;2263;-82
2023/10/06 12:31:32;;;;;;;;;;;;;;;22.62;55.81;101589.31;5041824;28;6425;-82
2023/10/06 12:34:03;;;;;;;;;;;;;;;22.63;55.48;101585.78;5039758;28;1598;-82
2023/10/06 12:36:31;;;;;;;;;;;;;;;22.49;55.47;101600.25;5040134;28;2274;-84
2023/10/06 12:38:59;;;;;;;;;;;;;;;22.25;56.28;101599.06;5044359;28;2374;-92
2023/10/06 12:41:26;;;;;;;;;;;;;;;22.12;56.61;101589.75;5042516;28;2378;-88
2023/10/06 12:43:52;;;;;;;;;;;;;;;22.12;56.53;101575.31;5041301;28;2341;-86
2023/10/06 12:46:19;;;;;;;;;;;;;;;22.12;56.83;101578.22;5039264;28;2364;-81
2023/10/06 12:48:46;;;;;;;;;;;;;;;22.13;56.52;101573.22;5040641;28;2378;-86
2023/10/06 12:51:14;;;;;;;;;;;;;;;22.14;56.45;101571.81;5040630;28;2438;-85
2023/10/06 12:53:40;;;;;;;;;;;;;;;22.13;56.41;101571.06;5040189;28;2464;-86
2023/10/06 12:56:07;;;;;;;;;;;;;;;22.14;56.42;101555.22;5038012;28;2283;-87
2023/10/06 12:58:34;;;;;;;;;;;;;;;22.35;56.35;101545.47;5039743;28;2448;-92